createdAt,value
2022-10-19T00:01:22.116Z,82.00
2022-10-19T00:03:53.476Z,82.24
2022-10-19T00:06:27.098Z,82.08
2022-10-19T00:09:00.835Z,82.11
2022-10-19T00:11:30.502Z,82.15
2022-10-19T00:14:00.044Z,82.16
2022-10-19T00:16:31.841Z,82.09
2022-10-19T00:19:02.677Z,82.43
2022-10-19T00:21:30.922Z,82.44
2022-10-19T00:23:59.233Z,82.64
2022-10-19T00:26:27.453Z,82.79
2022-10-19T00:28:56.737Z,82.97
2022-10-19T00:31:25.615Z,83.11
2022-10-19T00:33:55.636Z,83.12
2022-10-19T00:36:29.898Z,83.34
2022-10-19T00:38:58.993Z,83.29
2022-10-19T00:41:29.864Z,83.10
2022-10-19T00:44:07.003Z,82.98
2022-10-19T00:46:38.034Z,83.00
2022-10-19T00:49:20.510Z,83.43
2022-10-19T00:52:04.492Z,83.29
2022-10-19T00:54:33.951Z,83.20
2022-10-19T00:57:04.533Z,83.29
2022-10-19T00:59:33.443Z,83.40
2022-10-19T01:02:03.500Z,83.54
2022-10-19T01:04:34.774Z,83.76
2022-10-19T01:07:05.406Z,84.22
2022-10-19T01:09:33.706Z,84.06
2022-10-19T01:12:13.665Z,84.22
2022-10-19T01:15:05.843Z,84.15
2022-10-19T01:18:00.782Z,84.52
2022-10-19T01:21:00.472Z,84.12
2022-10-19T01:23:47.079Z,84.26
2022-10-19T01:26:21.122Z,84.34
2022-10-19T01:29:01.065Z,84.28
2022-10-19T01:31:46.599Z,84.49
2022-10-19T01:34:32.929Z,84.50
2022-10-19T01:37:13.359Z,84.33
2022-10-19T01:39:59.748Z,84.42
2022-10-19T01:42:36.005Z,84.56
2022-10-19T01:45:12.220Z,84.72
2022-10-19T01:47:54.024Z,84.57
2022-10-19T01:50:46.501Z,84.71
2022-10-19T01:53:18.054Z,84.64
2022-10-19T01:55:50.695Z,84.38
2022-10-19T01:58:25.787Z,84.59
2022-10-19T02:00:57.162Z,84.76
2022-10-19T02:03:27.544Z,84.94
2022-10-19T02:05:57.214Z,84.95
2022-10-19T02:08:32.019Z,85.11
2022-10-19T02:11:01.987Z,85.01
2022-10-19T02:13:31.736Z,85.39
2022-10-19T02:16:03.763Z,85.30
2022-10-19T02:18:37.681Z,85.47
2022-10-19T02:21:07.358Z,85.25
2022-10-19T02:23:36.222Z,85.48
2022-10-19T02:26:04.785Z,85.86
2022-10-19T02:28:33.439Z,86.15
2022-10-19T02:31:02.159Z,86.16
2022-10-19T02:33:31.788Z,86.31
2022-10-19T02:36:00.414Z,85.96
2022-10-19T02:38:28.900Z,85.88
2022-10-19T02:41:24.461Z,86.03
2022-10-19T02:44:02.230Z,86.49
2022-10-19T02:49:10.406Z,86.49
2022-10-19T02:51:41.518Z,86.62
2022-10-19T02:54:09.493Z,86.97
2022-10-19T02:56:37.438Z,86.91
2022-10-19T02:59:05.459Z,86.79
2022-10-19T03:01:33.324Z,86.85
2022-10-19T03:04:01.326Z,86.92
2022-10-19T03:06:29.351Z,86.88
2022-10-19T03:08:57.513Z,86.96
2022-10-19T03:11:26.162Z,87.02
2022-10-19T03:13:54.065Z,87.19
2022-10-19T03:16:22.493Z,87.70
2022-10-19T03:18:50.837Z,87.66
2022-10-19T03:21:21.077Z,87.58
2022-10-19T03:23:49.080Z,87.69
2022-10-19T03:26:18.215Z,87.73
2022-10-19T03:28:46.345Z,87.39
2022-10-19T03:31:14.373Z,87.57
2022-10-19T03:33:42.406Z,87.61
2022-10-19T03:36:28.261Z,87.42
2022-10-19T03:38:58.880Z,87.60
2022-10-19T03:41:29.615Z,87.49
2022-10-19T03:43:58.282Z,87.66
2022-10-19T03:46:27.185Z,87.80
2022-10-19T03:48:55.772Z,87.77
2022-10-19T03:51:26.779Z,87.66
2022-10-19T03:53:58.046Z,88.08
2022-10-19T03:56:28.445Z,87.75
2022-10-19T03:58:58.500Z,87.94
2022-10-19T04:01:41.968Z,88.02
2022-10-19T04:04:13.187Z,88.03
2022-10-19T04:06:43.897Z,87.92
2022-10-19T04:09:15.595Z,87.86
2022-10-19T04:11:43.635Z,88.15
2022-10-19T04:14:19.225Z,87.90
2022-10-19T04:16:55.143Z,88.16
2022-10-19T04:19:23.110Z,88.55
2022-10-19T04:21:51.779Z,88.45
2022-10-19T04:24:19.901Z,88.19
2022-10-19T04:26:52.660Z,88.31
2022-10-19T04:29:25.064Z,88.30
2022-10-19T04:31:56.128Z,88.35
2022-10-19T04:34:24.425Z,88.48
2022-10-19T04:36:53.540Z,88.35
2022-10-19T04:39:21.662Z,88.25
2022-10-19T04:41:49.647Z,88.54
2022-10-19T04:44:17.705Z,88.38
2022-10-19T04:46:45.943Z,88.35
2022-10-19T04:49:16.410Z,87.89
2022-10-19T04:51:47.970Z,87.97
2022-10-19T04:54:16.042Z,88.01
2022-10-19T04:56:44.138Z,87.77
2022-10-19T04:59:12.280Z,87.86
2022-10-19T05:01:46.398Z,87.96
2022-10-19T05:04:15.606Z,88.03
2022-10-19T05:06:43.653Z,88.11
2022-10-19T05:09:11.675Z,88.18
2022-10-19T05:11:39.963Z,87.77
2022-10-19T05:14:08.072Z,87.97
2022-10-19T05:16:36.163Z,88.23
2022-10-19T05:19:04.416Z,88.19
2022-10-19T05:21:33.187Z,88.38
2022-10-19T05:24:01.188Z,88.21
2022-10-19T05:26:30.423Z,87.98
2022-10-19T05:29:04.752Z,88.17
2022-10-19T05:31:34.206Z,88.05
2022-10-19T05:34:04.245Z,87.85
2022-10-19T05:36:40.128Z,87.76
2022-10-19T05:39:12.452Z,87.63
2022-10-19T05:41:43.160Z,88.03
2022-10-19T05:44:16.997Z,87.86
2022-10-19T05:46:45.508Z,88.15
2022-10-19T05:49:15.302Z,88.30
2022-10-19T05:51:43.959Z,88.07
2022-10-19T05:54:13.024Z,88.20
2022-10-19T05:56:42.909Z,88.28
2022-10-19T05:59:15.461Z,88.03
2022-10-19T06:01:43.636Z,88.07
2022-10-19T06:04:14.237Z,88.06
2022-10-19T06:06:43.202Z,88.23
2022-10-19T06:09:12.265Z,88.21
2022-10-19T06:11:43.003Z,88.11
2022-10-19T06:14:13.844Z,88.26
2022-10-19T06:16:42.430Z,88.13
2022-10-19T06:19:10.730Z,88.33
2022-10-19T06:21:41.820Z,88.37
2022-10-19T06:24:13.402Z,88.35
2022-10-19T06:26:41.463Z,88.13
2022-10-19T06:29:09.825Z,88.22
2022-10-19T06:31:38.500Z,88.31
2022-10-19T06:34:06.895Z,88.46
2022-10-19T06:36:42.240Z,88.56
2022-10-19T06:50:11.594Z,87.69
2022-10-19T06:52:42.700Z,87.79
2022-10-19T06:55:12.633Z,87.41
2022-10-19T06:57:40.724Z,87.55
2022-10-19T07:00:09.379Z,87.38
2022-10-19T07:02:37.734Z,87.33
2022-10-19T07:05:07.274Z,87.52
2022-10-19T07:07:37.013Z,87.39
2022-10-19T07:10:05.886Z,87.46
2022-10-19T07:12:34.369Z,87.14
2022-10-19T07:15:02.892Z,87.42
2022-10-19T07:17:31.424Z,87.15
2022-10-19T07:19:59.876Z,87.13
2022-10-19T07:22:28.459Z,87.07
2022-10-19T07:24:58.338Z,87.16
2022-10-19T07:27:26.484Z,87.23
2022-10-19T07:29:54.645Z,86.90
2022-10-19T07:32:22.753Z,87.09
2022-10-19T07:34:50.760Z,87.19
2022-10-19T07:37:18.797Z,87.19
2022-10-19T07:39:47.076Z,87.05
2022-10-19T07:42:15.126Z,86.91
2022-10-19T07:44:43.228Z,87.18
2022-10-19T07:47:11.306Z,87.11
2022-10-19T07:49:40.119Z,87.06
2022-10-19T07:52:08.260Z,87.12
2022-10-19T07:54:36.588Z,87.14
2022-10-19T07:57:04.736Z,87.15
2022-10-19T07:59:32.826Z,87.04
2022-10-19T08:02:04.601Z,87.05
2022-10-19T08:07:20.766Z,86.82
2022-10-19T08:09:53.151Z,86.73
2022-10-19T08:12:22.136Z,86.60
2022-10-19T08:14:50.541Z,86.60
2022-10-19T08:17:18.597Z,86.60
2022-10-19T08:19:47.310Z,86.51
2022-10-19T08:22:15.670Z,86.32
2022-10-19T08:24:43.780Z,86.00
2022-10-19T08:27:12.048Z,86.00
2022-10-19T08:29:40.295Z,85.87
2022-10-19T08:32:08.599Z,85.72
2022-10-19T08:34:37.622Z,85.59
2022-10-19T08:37:14.879Z,85.29
2022-10-19T08:39:57.573Z,85.37
2022-10-19T08:42:42.373Z,85.13
2022-10-19T08:45:24.812Z,85.06
2022-10-19T08:47:59.347Z,84.77
2022-10-19T08:50:36.748Z,84.56
2022-10-19T08:53:14.471Z,84.41
2022-10-19T08:56:39.021Z,83.81
2022-10-19T08:59:41.227Z,83.28
2022-10-19T09:02:45.064Z,82.85
2022-10-19T09:05:39.771Z,82.66
2022-10-19T09:08:12.156Z,82.78
2022-10-19T09:10:46.114Z,82.43
2022-10-19T09:13:41.508Z,81.44
2022-10-19T09:16:22.562Z,79.70
2022-10-19T09:18:51.238Z,79.73
2022-10-19T09:21:47.775Z,79.12
2022-10-19T09:24:29.929Z,79.06
2022-10-19T09:27:01.391Z,78.30
2022-10-19T09:29:48.040Z,78.34
2022-10-19T09:32:19.739Z,77.95
2022-10-19T09:35:02.828Z,77.97
2022-10-19T09:37:32.995Z,77.72
2022-10-19T09:40:01.260Z,76.48
2022-10-19T09:42:37.099Z,75.69
2022-10-19T09:45:19.510Z,75.91
2022-10-19T09:47:48.793Z,75.92
2022-10-19T09:50:29.629Z,75.86
2022-10-19T09:53:05.840Z,75.31
2022-10-19T09:55:39.557Z,75.43
2022-10-19T09:58:13.586Z,74.27
2022-10-19T10:00:55.024Z,73.41
2022-10-19T10:03:23.290Z,73.10
2022-10-19T10:05:52.406Z,73.09
2022-10-19T10:08:23.752Z,73.07
2022-10-19T10:11:14.827Z,73.04
2022-10-19T10:13:49.573Z,72.27
2022-10-19T10:16:21.816Z,71.98
2022-10-19T10:18:58.856Z,71.62
2022-10-19T10:21:34.761Z,71.94
2022-10-19T10:24:25.250Z,72.79
2022-10-19T10:26:56.418Z,72.78
2022-10-19T10:29:25.623Z,71.57
2022-10-19T10:31:59.962Z,71.53
2022-10-19T10:35:00.778Z,71.76
2022-10-19T10:37:47.395Z,71.64
2022-10-19T10:40:29.458Z,71.88
2022-10-19T10:43:13.046Z,71.48
2022-10-19T10:45:46.955Z,70.61
2022-10-19T10:48:23.700Z,70.82
2022-10-19T10:50:53.173Z,69.99
2022-10-19T10:53:34.593Z,70.10
2022-10-19T10:56:05.588Z,70.00
2022-10-19T10:58:43.638Z,70.02
2022-10-19T11:01:30.448Z,70.37
2022-10-19T11:04:08.899Z,70.00
2022-10-19T11:06:44.787Z,70.26
2022-10-19T11:09:20.807Z,70.26
2022-10-19T11:11:56.244Z,69.28
2022-10-19T11:14:31.122Z,69.44
2022-10-19T11:17:06.399Z,69.59
2022-10-19T11:19:43.623Z,69.26
2022-10-19T11:22:35.244Z,69.43
2022-10-19T11:25:21.523Z,69.64
2022-10-19T11:28:14.376Z,69.36
2022-10-19T11:31:05.704Z,69.19
2022-10-19T11:34:04.659Z,69.63
2022-10-19T11:36:50.412Z,69.74
2022-10-19T11:39:18.394Z,69.83
2022-10-19T11:42:18.253Z,69.62
2022-10-19T11:45:11.417Z,69.91
2022-10-19T11:48:00.689Z,69.79
2022-10-19T11:50:58.923Z,70.06
2022-10-19T11:53:45.850Z,69.92
2022-10-19T11:56:39.403Z,69.98
2022-10-19T11:59:37.753Z,70.08
2022-10-19T12:02:44.799Z,69.85
2022-10-19T12:05:35.874Z,70.01
2022-10-19T12:08:09.758Z,70.15
2022-10-19T12:10:45.857Z,70.30
2022-10-19T12:13:17.081Z,70.41
2022-10-19T12:15:49.976Z,70.31
2022-10-19T12:18:36.985Z,70.21
2022-10-19T12:21:11.914Z,69.92
2022-10-19T12:23:44.149Z,69.85
2022-10-19T12:28:51.210Z,69.64
2022-10-19T12:31:19.893Z,69.50
2022-10-19T12:34:00.541Z,69.28
2022-10-19T12:37:06.215Z,69.54
2022-10-19T12:40:10.136Z,69.56
2022-10-19T12:43:31.016Z,69.75
2022-10-19T12:46:15.112Z,69.71
2022-10-19T12:48:43.720Z,69.95
2022-10-19T12:51:15.151Z,69.92
2022-10-19T12:53:49.162Z,70.00
2022-10-19T12:56:24.370Z,69.96
2022-10-19T12:59:00.066Z,70.14
2022-10-19T13:01:44.331Z,70.09
2022-10-19T13:04:24.925Z,70.22
2022-10-19T13:07:02.587Z,70.28
2022-10-19T13:09:42.928Z,70.37
2022-10-19T13:12:17.666Z,70.46
2022-10-19T13:15:01.573Z,70.63
2022-10-19T13:17:38.460Z,70.75
2022-10-19T13:20:15.782Z,70.90
2022-10-19T13:22:51.247Z,70.80
2022-10-19T13:25:21.944Z,70.71
2022-10-19T13:28:17.852Z,70.85
2022-10-19T13:30:48.371Z,71.09
2022-10-19T13:33:25.691Z,70.97
2022-10-19T13:36:00.046Z,71.11
2022-10-19T13:39:03.118Z,71.18
2022-10-19T13:41:34.306Z,71.21
2022-10-19T13:44:20.544Z,71.28
2022-10-19T13:46:51.674Z,71.57
2022-10-19T13:49:43.556Z,71.52
2022-10-19T13:53:07.249Z,71.44
2022-10-19T13:56:07.087Z,71.60
2022-10-19T13:59:10.398Z,71.92
2022-10-19T14:01:59.989Z,71.85
2022-10-19T14:04:48.643Z,72.06
2022-10-19T14:07:25.641Z,71.87
2022-10-19T14:10:18.277Z,72.08
2022-10-19T14:12:47.510Z,72.21
2022-10-19T14:15:18.653Z,72.09
2022-10-19T14:17:46.707Z,72.40
2022-10-19T14:20:27.376Z,72.35
2022-10-19T14:22:55.798Z,72.49
2022-10-19T14:25:29.491Z,72.68
2022-10-19T14:28:06.869Z,72.64
2022-10-19T14:30:36.342Z,72.66
2022-10-19T14:33:11.260Z,72.81
2022-10-19T14:35:45.135Z,72.79
2022-10-19T14:38:20.645Z,72.91
2022-10-19T14:40:48.711Z,73.10
2022-10-19T14:43:30.327Z,72.89
2022-10-19T14:46:07.241Z,73.25
2022-10-19T14:48:41.347Z,73.36
2022-10-19T14:51:47.246Z,73.48
2022-10-19T14:54:29.277Z,73.83
2022-10-19T14:57:29.223Z,73.99
2022-10-19T15:00:00.542Z,74.10
2022-10-19T15:02:38.916Z,74.28
2022-10-19T15:05:20.607Z,74.09
2022-10-19T15:07:49.429Z,74.50
2022-10-19T15:10:24.648Z,74.45
2022-10-19T15:13:01.235Z,74.36
2022-10-19T15:15:34.865Z,74.45
2022-10-19T15:18:04.998Z,74.59
2022-10-19T15:20:44.146Z,74.53
2022-10-19T15:23:41.289Z,74.65
2022-10-19T15:26:22.380Z,74.54
2022-10-19T15:28:50.629Z,74.71
2022-10-19T15:31:20.662Z,74.84
2022-10-19T15:33:54.884Z,74.63
2022-10-19T15:36:24.564Z,74.62
2022-10-19T15:39:18.293Z,74.69
2022-10-19T15:41:53.415Z,74.86
2022-10-19T15:44:33.726Z,75.10
2022-10-19T15:47:23.349Z,75.03
2022-10-19T15:49:54.482Z,75.03
2022-10-19T15:52:23.909Z,75.28
2022-10-19T15:54:54.875Z,75.28
2022-10-19T15:57:30.175Z,75.40
2022-10-19T16:00:00.687Z,75.42
2022-10-19T16:02:28.971Z,75.68
2022-10-19T16:04:57.018Z,75.66
2022-10-19T16:07:28.467Z,75.62
2022-10-19T16:09:57.512Z,75.53
2022-10-19T16:12:26.913Z,75.93
2022-10-19T16:14:55.490Z,75.96
2022-10-19T16:17:23.704Z,75.99
2022-10-19T16:19:51.938Z,76.18
2022-10-19T16:22:20.976Z,76.19
2022-10-19T16:24:49.151Z,76.28
2022-10-19T16:27:17.192Z,76.33
2022-10-19T16:29:45.174Z,76.49
2022-10-19T16:32:13.299Z,76.48
2022-10-19T16:34:41.525Z,76.52
2022-10-19T16:37:09.552Z,76.76
2022-10-19T16:39:37.769Z,77.10
2022-10-19T16:42:05.837Z,76.83
2022-10-19T16:44:33.904Z,77.04
2022-10-19T16:47:01.917Z,77.04
2022-10-19T16:49:30.544Z,77.22
2022-10-19T16:51:58.592Z,77.26
2022-10-19T16:54:27.015Z,77.62
2022-10-19T16:56:55.815Z,77.55
2022-10-19T16:59:23.972Z,77.57
2022-10-19T17:01:52.423Z,77.64
2022-10-19T17:04:20.649Z,78.02
2022-10-19T17:06:48.627Z,77.84
2022-10-19T17:09:40.807Z,78.13
2022-10-19T17:12:05.780Z,78.71
2022-10-19T17:14:35.303Z,78.44
2022-10-19T17:17:03.590Z,78.71
2022-10-19T17:19:32.086Z,78.43
2022-10-19T17:22:02.005Z,79.09
2022-10-19T17:24:31.320Z,79.27
2022-10-19T17:27:03.470Z,79.01
2022-10-19T17:29:31.513Z,79.00
2022-10-19T17:31:59.592Z,79.21
2022-10-19T17:34:27.658Z,79.43
2022-10-19T17:36:55.781Z,79.63
2022-10-19T17:39:29.914Z,79.47
2022-10-19T17:42:02.001Z,79.40
2022-10-19T17:44:31.759Z,80.02
2022-10-19T17:47:01.325Z,80.13
2022-10-19T17:49:30.077Z,80.33
2022-10-19T17:51:58.786Z,79.99
2022-10-19T17:54:27.062Z,80.19
2022-10-19T17:56:55.481Z,80.36
2022-10-19T17:59:34.891Z,80.31
2022-10-19T18:02:04.862Z,80.82
2022-10-19T18:04:32.988Z,80.22
2022-10-19T18:07:01.026Z,80.31
2022-10-19T18:09:28.960Z,80.70
2022-10-19T18:11:56.927Z,80.46
2022-10-19T18:14:24.870Z,80.76
2022-10-19T18:16:52.768Z,80.75
2022-10-19T18:19:20.865Z,80.57
2022-10-19T18:21:49.343Z,81.25
2022-10-19T18:24:21.441Z,81.23
2022-10-19T18:26:51.286Z,81.13
2022-10-19T18:29:22.444Z,81.27
2022-10-19T18:31:52.930Z,81.17
2022-10-19T18:34:24.816Z,81.18
2022-10-19T18:36:53.846Z,81.52
2022-10-19T18:39:22.260Z,82.08
2022-10-19T18:41:54.575Z,81.87
2022-10-19T18:44:26.569Z,82.06
2022-10-19T18:46:57.068Z,81.96
2022-10-19T18:49:25.839Z,82.03
2022-10-19T18:51:55.660Z,82.40
2022-10-19T18:54:26.559Z,82.15
2022-10-19T18:56:55.425Z,82.28
2022-10-19T18:59:23.522Z,82.29
2022-10-19T19:01:52.681Z,82.40
2022-10-19T19:04:20.760Z,82.34
2022-10-19T19:06:48.741Z,82.17
2022-10-19T19:09:19.078Z,82.11
2022-10-19T19:11:47.377Z,82.25
2022-10-19T19:14:18.623Z,82.36
2022-10-19T19:16:46.816Z,82.46
2022-10-19T19:19:17.536Z,82.53
2022-10-19T19:21:45.843Z,82.68
2022-10-19T19:24:16.401Z,82.65
2022-10-19T19:26:48.487Z,82.85
2022-10-19T19:29:17.653Z,82.93
2022-10-19T19:31:45.819Z,82.74
2022-10-19T19:34:14.384Z,82.79
2022-10-19T19:36:47.502Z,82.97
2022-10-19T19:39:20.206Z,82.86
2022-10-19T19:41:49.865Z,82.98
2022-10-19T19:44:19.239Z,82.95
2022-10-19T19:46:48.001Z,83.27
2022-10-19T19:49:16.408Z,83.32
2022-10-19T19:51:44.537Z,83.24
2022-10-19T19:54:12.689Z,83.27
2022-10-19T19:56:42.512Z,83.27
2022-10-19T19:59:12.392Z,83.48
2022-10-19T20:01:40.882Z,83.36
2022-10-19T20:04:10.001Z,83.52
2022-10-19T20:06:39.608Z,83.67
2022-10-19T20:09:11.520Z,83.60
2022-10-19T20:11:43.964Z,83.62
2022-10-19T20:14:12.728Z,83.96
2022-10-19T20:16:41.214Z,83.91
2022-10-19T20:19:12.725Z,83.84
2022-10-19T20:21:41.330Z,83.87
2022-10-19T20:24:10.082Z,84.02
2022-10-19T20:26:38.220Z,84.25
2022-10-19T20:29:06.832Z,84.39
2022-10-19T20:31:39.645Z,84.01
2022-10-19T20:34:14.114Z,83.71
2022-10-19T20:36:42.332Z,83.91
2022-10-19T20:39:10.822Z,83.86
2022-10-19T20:41:39.159Z,83.75
2022-10-19T20:44:07.410Z,83.68
2022-10-19T20:46:37.248Z,83.68
2022-10-19T20:49:07.515Z,83.73
2022-10-19T20:51:37.019Z,83.73
2022-10-19T20:54:12.152Z,83.63
2022-10-19T20:56:41.552Z,83.75
2022-10-19T20:59:17.644Z,83.88
2022-10-19T21:01:49.653Z,83.98
2022-10-19T21:04:18.253Z,84.07
2022-10-19T21:06:48.683Z,83.98
2022-10-19T21:09:20.397Z,83.98
2022-10-19T21:11:50.518Z,84.14
2022-10-19T21:14:25.263Z,84.04
2022-10-19T21:17:00.370Z,84.36
2022-10-19T21:19:30.099Z,84.33
2022-10-19T21:22:04.073Z,84.44
2022-10-19T21:24:34.991Z,84.42
2022-10-19T21:27:07.681Z,84.17
2022-10-19T21:29:37.148Z,84.25
2022-10-19T21:32:05.508Z,84.19
2022-10-19T21:34:33.538Z,84.15
2022-10-19T21:37:01.462Z,84.16
2022-10-19T21:39:29.448Z,84.20
2022-10-19T21:41:58.136Z,84.16
2022-10-19T21:44:26.154Z,84.09
2022-10-19T21:46:54.297Z,84.08
2022-10-19T21:49:22.386Z,84.12
2022-10-19T21:51:53.841Z,84.10
2022-10-19T21:54:25.413Z,84.07
2022-10-19T21:56:55.992Z,84.06
2022-10-19T21:59:24.824Z,84.06
2022-10-19T22:01:54.770Z,84.10
2022-10-19T22:04:23.637Z,84.05
2022-10-19T22:06:51.796Z,84.28
2022-10-19T22:09:21.900Z,84.42
2022-10-19T22:11:49.854Z,84.50
2022-10-19T22:14:18.408Z,84.56
2022-10-19T22:16:46.708Z,84.49
2022-10-19T22:19:14.864Z,84.42
2022-10-19T22:21:42.908Z,84.51
2022-10-19T22:24:14.179Z,84.53
2022-10-19T22:26:45.892Z,84.43
2022-10-19T22:29:14.269Z,84.52
2022-10-19T22:31:42.314Z,84.62
2022-10-19T22:34:16.065Z,84.54
2022-10-19T22:36:44.518Z,84.49
2022-10-19T22:39:13.604Z,84.42
2022-10-19T22:41:41.787Z,84.33
2022-10-19T22:44:09.950Z,84.79
2022-10-19T22:46:37.945Z,84.65
2022-10-19T22:49:06.145Z,84.73
2022-10-19T22:51:34.253Z,84.86
2022-10-19T22:54:02.229Z,84.82
2022-10-19T22:56:30.294Z,84.90
2022-10-19T22:59:00.245Z,84.94
2022-10-19T23:01:29.352Z,84.77
2022-10-19T23:03:57.351Z,84.72
2022-10-19T23:06:27.052Z,84.80
2022-10-19T23:08:55.308Z,84.74
2022-10-19T23:11:23.981Z,84.64
2022-10-19T23:13:51.926Z,84.56
2022-10-19T23:16:20.248Z,84.69
2022-10-19T23:18:48.579Z,84.71
2022-10-19T23:21:16.751Z,84.87
2022-10-19T23:23:44.887Z,84.88
2022-10-19T23:26:17.927Z,84.80
2022-10-19T23:28:48.155Z,84.66
2022-10-19T23:31:19.249Z,84.82
2022-10-19T23:33:47.377Z,84.86
2022-10-19T23:36:18.181Z,84.79
2022-10-19T23:38:47.839Z,84.64
2022-10-19T23:41:16.665Z,84.62
2022-10-19T23:43:45.014Z,84.66
2022-10-19T23:46:13.776Z,84.60
2022-10-19T23:48:42.368Z,84.42
2022-10-19T23:51:13.842Z,84.53
2022-10-19T23:53:44.282Z,84.34
2022-10-19T23:56:23.924Z,84.24
2022-10-19T23:58:51.987Z,84.29
